Time;durP1;ratioP1;P1;durP2;ratioP2;P2;SDS_P1;SDS_P2;PMS_P1;PMS_P2;Temp;Humidity;BMP_temperature;BMP_pressure;BME280_temperature;BME280_humidity;BME280_pressure;Samples;Min_cycle;Max_cycle;Signal;HPM_P1;HPM_P2
2022/03/08 00:01:32;;;;;;;5.25;3.47;;;;;;;-1.62;69.91;98934.13;4883927;29;20048;-75
2022/03/08 00:03:57;;;;;;;4.60;3.20;;;;;;;-1.65;70.23;98933.34;4867637;29;20071;-73
2022/03/08 00:06:22;;;;;;;4.55;3.50;;;;;;;-1.68;70.02;98930.84;4883365;29;20080;-71
2022/03/08 00:08:47;;;;;;;6.85;4.00;;;;;;;-1.71;70.23;98937.03;4881768;29;20044;-78
2022/03/08 00:11:13;;;;;;;5.30;3.58;;;;;;;-1.75;70.63;98930.19;4884689;29;20052;-73
2022/03/08 00:13:38;;;;;;;6.78;3.80;;;;;;;-1.78;70.09;98947.72;4882156;29;20032;-75
2022/03/08 00:16:02;;;;;;;5.95;3.90;;;;;;;-1.81;69.72;98937.41;4883220;29;20524;-77
2022/03/08 00:18:27;;;;;;;5.32;4.00;;;;;;;-1.84;70.15;98940.97;4885212;29;20492;-80
2022/03/08 00:20:52;;;;;;;7.38;3.88;;;;;;;-1.85;70.30;98940.09;4883513;29;20518;-68
2022/03/08 00:23:17;;;;;;;6.30;4.03;;;;;;;-1.86;69.80;98943.63;4883324;29;20044;-68
2022/03/08 00:25:41;;;;;;;7.28;4.28;;;;;;;-1.87;70.78;98947.13;4881591;29;20056;-67
2022/03/08 00:28:06;;;;;;;6.57;4.30;;;;;;;-1.86;71.12;98956.69;4882865;29;20051;-65
2022/03/08 00:30:31;;;;;;;4.72;3.30;;;;;;;-1.84;70.61;98954.03;4865891;29;20574;-67
2022/03/08 00:32:56;;;;;;;6.57;3.67;;;;;;;-1.81;70.49;98956.53;4881328;29;20051;-71
2022/03/08 00:35:21;;;;;;;7.55;4.28;;;;;;;-1.79;70.46;98956.47;4865975;29;20255;-75
2022/03/08 00:37:48;;;;;;;5.63;3.45;;;;;;;-1.79;70.67;98973.00;4881674;29;20079;-74
2022/03/08 00:40:13;;;;;;;8.60;4.00;;;;;;;-1.79;70.54;98959.06;4866208;29;20084;-75
2022/03/08 00:42:38;;;;;;;7.38;4.03;;;;;;;-1.75;70.46;98963.31;4883496;29;20052;-78
2022/03/08 00:45:07;;;;;;;5.60;3.40;;;;;;;-1.75;70.33;98965.91;4883366;29;20040;-75
2022/03/08 00:47:31;;;;;;;6.85;3.78;;;;;;;-1.74;70.19;98970.25;4882606;29;20507;-74
2022/03/08 00:49:56;;;;;;;6.32;3.95;;;;;;;-1.76;69.93;98962.44;4866923;29;20529;-75
2022/03/08 00:52:21;;;;;;;3.42;2.72;;;;;;;-1.74;69.80;98967.63;4867830;29;20052;-75
2022/03/08 00:54:46;;;;;;;7.03;4.32;;;;;;;-1.74;69.90;98972.84;4885164;29;20151;-75
2022/03/08 00:57:13;;;;;;;8.52;3.50;;;;;;;-1.77;69.71;98972.94;4883163;29;20058;-74
2022/03/08 00:59:38;;;;;;;5.40;3.40;;;;;;;-1.76;69.35;98975.50;4886116;29;20147;-75
2022/03/08 01:02:03;;;;;;;6.68;3.55;;;;;;;-1.77;69.59;98986.00;4853632;29;20495;-78
2022/03/08 01:04:28;;;;;;;6.53;3.80;;;;;;;-1.79;69.09;98986.06;4872298;29;20131;-75
2022/03/08 01:06:55;;;;;;;6.07;3.88;;;;;;;-1.84;69.19;98981.00;4901665;29;20028;-70
2022/03/08 01:09:19;;;;;;;7.28;3.90;;;;;;;-1.88;69.05;98983.75;4901942;29;20068;-75
2022/03/08 01:11:44;;;;;;;4.68;2.92;;;;;;;-1.92;69.13;98990.81;4901616;29;20031;-70
2022/03/08 01:14:10;;;;;;;5.80;3.20;;;;;;;-1.95;68.61;98984.84;4894955;29;20503;-73
2022/03/08 01:16:36;;;;;;;6.35;3.40;;;;;;;-1.98;68.61;98985.78;4883582;29;20131;-76
2022/03/08 01:19:02;;;;;;;5.35;3.20;;;;;;;-2.01;68.27;98985.03;4882894;29;20104;-72
2022/03/08 01:21:27;;;;;;;6.18;3.63;;;;;;;-2.03;68.84;98984.25;4885041;29;20047;-75
2022/03/08 01:23:52;;;;;;;4.07;2.58;;;;;;;-2.07;68.66;98982.63;4883728;29;20099;-76
2022/03/08 01:26:18;;;;;;;5.45;3.95;;;;;;;-2.11;68.30;98989.69;4883237;29;20052;-74
2022/03/08 01:28:43;;;;;;;6.78;4.18;;;;;;;-2.13;68.42;98988.03;4882443;29;20054;-73
2022/03/08 01:31:08;;;;;;;6.63;3.60;;;;;;;-2.13;68.28;98998.47;4883468;29;20052;-72
2022/03/08 01:33:34;;;;;;;7.60;3.70;;;;;;;-2.15;68.51;98992.47;4882135;29;20042;-76
2022/03/08 01:36:00;;;;;;;4.90;3.58;;;;;;;-2.21;68.02;98990.88;4881363;29;20419;-75
2022/03/08 01:38:25;;;;;;;4.63;3.28;;;;;;;-2.23;68.46;98990.06;4880643;29;20069;-70
2022/03/08 01:40:51;;;;;;;4.10;3.08;;;;;;;-2.25;67.79;98995.31;4882977;29;20083;-74
2022/03/08 01:43:16;;;;;;;4.90;3.30;;;;;;;-2.25;68.31;98991.84;4881469;29;20111;-74
2022/03/08 01:45:42;;;;;;;5.57;3.38;;;;;;;-2.31;67.93;98995.53;4883117;29;20048;-74
2022/03/08 01:48:06;;;;;;;6.65;4.03;;;;;;;-2.35;68.54;98996.50;4883095;29;20047;-72
2022/03/08 01:50:31;;;;;;;5.25;4.00;;;;;;;-2.35;68.32;98995.66;4897570;29;20056;-74
2022/03/08 01:52:57;;;;;;;4.93;3.75;;;;;;;-2.39;68.55;99004.50;4882171;29;20051;-68
2022/03/08 01:55:22;;;;;;;5.32;3.40;;;;;;;-2.42;68.50;98996.75;4880348;29;20047;-74
2022/03/08 01:57:49;;;;;;;5.35;3.40;;;;;;;-2.42;68.78;99005.44;4882539;29;20071;-75
2022/03/08 02:00:18;;;;;;;8.82;3.35;;;;;;;-2.42;68.49;99008.03;4896928;29;20054;-75
2022/03/08 02:02:43;;;;;;;6.53;3.95;;;;;;;-2.42;68.73;99009.78;4881553;29;20499;-77
2022/03/08 02:05:08;;;;;;;4.93;3.55;;;;;;;-2.43;68.92;99014.16;4897879;29;20375;-74
2022/03/08 02:07:33;;;;;;;4.50;2.97;;;;;;;-2.44;68.49;99012.44;4882982;29;20040;-77
2022/03/08 02:09:59;;;;;;;5.80;3.50;;;;;;;-2.44;68.55;99016.81;4882189;29;20123;-70
2022/03/08 02:12:24;;;;;;;5.50;4.00;;;;;;;-2.47;68.52;99017.75;4880381;29;20044;-75
2022/03/08 02:14:49;;;;;;;6.25;4.38;;;;;;;-2.48;68.74;99023.03;4866301;29;20051;-72
2022/03/08 02:17:14;;;;;;;5.50;3.58;;;;;;;-2.46;68.23;99018.59;4881269;29;20047;-67
2022/03/08 02:19:39;;;;;;;5.20;3.70;;;;;;;-2.45;68.33;99022.94;4880564;29;20155;-71
2022/03/08 02:22:04;;;;;;;4.60;3.42;;;;;;;-2.44;68.44;99033.31;4880614;29;20123;-73
2022/03/08 02:24:28;;;;;;;6.18;3.85;;;;;;;-2.41;68.84;99037.59;4864132;29;20056;-71
2022/03/08 02:26:54;;;;;;;6.68;3.88;;;;;;;-2.40;68.35;99037.56;4880820;29;20047;-70
2022/03/08 02:29:19;;;;;;;5.60;3.35;;;;;;;-2.44;68.59;99042.91;4879317;29;20083;-67
2022/03/08 02:31:43;;;;;;;3.95;3.25;;;;;;;-2.44;68.25;99042.91;4883463;29;20126;-65
2022/03/08 02:34:08;;;;;;;6.38;3.58;;;;;;;-2.48;68.51;99036.09;4879844;29;20091;-65
2022/03/08 02:36:33;;;;;;;5.72;3.20;;;;;;;-2.53;68.21;99038.81;4881215;29;20397;-72
2022/03/08 02:38:58;;;;;;;5.63;3.50;;;;;;;-2.55;68.30;99045.81;4879615;29;20047;-74
2022/03/08 02:41:24;;;;;;;5.43;4.30;;;;;;;-2.56;68.61;99052.78;4879706;29;20419;-74
2022/03/08 02:43:49;;;;;;;5.38;3.40;;;;;;;-2.60;67.94;99047.72;4881168;29;20108;-72
2022/03/08 02:46:14;;;;;;;4.68;3.15;;;;;;;-2.60;68.38;99052.94;4862562;29;20044;-72
2022/03/08 02:48:39;;;;;;;4.88;3.33;;;;;;;-2.63;68.56;99051.25;4861803;29;20474;-72
2022/03/08 02:51:04;;;;;;;6.88;4.22;;;;;;;-2.63;68.20;99059.09;4862599;29;20051;-75
2022/03/08 02:53:29;;;;;;;6.60;3.72;;;;;;;-2.61;68.47;99072.97;4882702;29;20048;-76
2022/03/08 02:55:54;;;;;;;6.47;4.40;;;;;;;-2.62;68.36;99078.22;4883324;29;20044;-74
2022/03/08 02:58:19;;;;;;;6.00;3.95;;;;;;;-2.65;67.93;99076.53;4883634;29;20099;-75
2022/03/08 03:00:44;;;;;;;7.30;3.97;;;;;;;-2.65;68.24;99070.47;4883038;29;20040;-74
2022/03/08 03:03:09;;;;;;;5.75;4.05;;;;;;;-2.71;67.99;99084.50;4866192;29;20051;-74
2022/03/08 03:05:35;;;;;;;5.78;3.60;;;;;;;-2.75;68.22;99072.47;4850410;29;20131;-74
2022/03/08 03:08:00;;;;;;;7.65;4.72;;;;;;;-2.78;68.35;99075.16;4885488;29;20043;-74
2022/03/08 03:10:26;;;;;;;5.78;4.07;;;;;;;-2.77;68.61;99086.44;4850587;29;20040;-76
2022/03/08 03:12:52;;;;;;;4.70;3.33;;;;;;;-2.72;68.44;99090.66;4887015;29;20063;-77
2022/03/08 03:15:18;;;;;;;5.97;3.50;;;;;;;-2.80;68.05;99097.81;4869169;29;20094;-77
2022/03/08 03:17:43;;;;;;;6.50;3.83;;;;;;;-2.82;68.20;99094.38;4864270;29;20108;-74
2022/03/08 03:20:10;;;;;;;4.90;3.95;;;;;;;-2.84;68.62;99101.41;4875730;29;20108;-74
2022/03/08 03:22:35;;;;;;;7.32;4.28;;;;;;;-2.83;68.37;99112.72;4881154;29;20048;-74
2022/03/08 03:25:00;;;;;;;5.93;3.97;;;;;;;-2.84;68.77;99109.25;4881640;29;20055;-74
2022/03/08 03:27:25;;;;;;;4.80;3.33;;;;;;;-2.82;68.01;99104.00;4878657;29;20068;-75
2022/03/08 03:29:50;;;;;;;6.70;4.43;;;;;;;-2.84;68.18;99114.47;4882946;29;20353;-74
2022/03/08 03:32:15;;;;;;;8.45;4.95;;;;;;;-2.84;67.98;99106.63;4883597;29;20048;-74
2022/03/08 03:34:39;;;;;;;7.35;4.30;;;;;;;-2.85;68.27;99110.13;4882307;29;20040;-74
2022/03/08 03:37:04;;;;;;;6.70;4.00;;;;;;;-2.84;68.22;99113.59;4868841;29;20080;-73
2022/03/08 03:39:30;;;;;;;7.15;4.75;;;;;;;-2.85;67.89;99115.34;4877716;29;20069;-74
2022/03/08 03:41:55;;;;;;;7.28;4.30;;;;;;;-2.87;68.07;99118.88;4877514;29;20219;-74
2022/03/08 03:44:20;;;;;;;7.97;4.68;;;;;;;-2.88;68.06;99122.38;4871610;29;20055;-72
2022/03/08 03:46:45;;;;;;;5.72;4.20;;;;;;;-2.89;67.73;99124.13;4866587;29;20059;-73
2022/03/08 03:49:09;;;;;;;8.55;4.75;;;;;;;-2.92;68.33;99135.50;4850897;29;20036;-74
2022/03/08 03:51:34;;;;;;;7.43;4.00;;;;;;;-2.93;68.11;99144.22;4851121;29;20419;-78
2022/03/08 03:53:59;;;;;;;7.13;3.67;;;;;;;-2.95;67.86;99143.41;4867010;29;20151;-78
2022/03/08 03:56:24;;;;;;;5.78;4.10;;;;;;;-2.91;67.83;99133.75;4870012;29;20052;-76
2022/03/08 03:58:48;;;;;;;12.85;5.15;;;;;;;-2.95;67.75;99133.00;4868807;29;20040;-78
2022/03/08 04:01:14;;;;;;;7.22;4.40;;;;;;;-2.95;68.11;99137.34;4866919;29;20040;-78
2022/03/08 04:03:39;;;;;;;6.22;4.03;;;;;;;-2.98;68.17;99145.25;4866141;29;20055;-78
2022/03/08 04:06:04;;;;;;;6.15;3.63;;;;;;;-3.03;67.50;99149.69;4850985;29;20135;-73
2022/03/08 04:08:29;;;;;;;9.30;4.68;;;;;;;-3.05;67.91;99134.09;4866147;29;20099;-75
2022/03/08 04:10:54;;;;;;;5.82;4.50;;;;;;;-3.07;67.66;99148.94;4866165;29;20044;-74
2022/03/08 04:13:19;;;;;;;9.95;4.95;;;;;;;-3.10;67.38;99137.72;4866838;29;20136;-75
2022/03/08 04:15:45;;;;;;;5.40;3.72;;;;;;;-3.12;68.02;99140.34;4851425;29;20051;-75
2022/03/08 04:18:10;;;;;;;8.93;5.10;;;;;;;-3.14;68.00;99157.78;4858732;29;20048;-75
2022/03/08 04:20:35;;;;;;;8.70;4.40;;;;;;;-3.12;67.90;99152.53;4863007;29;20729;-74
2022/03/08 04:22:59;;;;;;;6.47;4.30;;;;;;;-3.19;67.75;99154.44;4854683;29;20088;-76
2022/03/08 04:25:25;;;;;;;8.75;4.85;;;;;;;-3.20;67.94;99157.09;4867175;29;20052;-77
2022/03/08 04:27:50;;;;;;;6.20;3.83;;;;;;;-3.22;68.05;99166.69;4867607;29;20036;-76
2022/03/08 04:30:14;;;;;;;5.75;3.63;;;;;;;-3.24;68.15;99171.94;4866013;29;20731;-76
2022/03/08 04:32:39;;;;;;;6.90;4.60;;;;;;;-3.25;67.73;99167.59;4894624;29;20048;-78
2022/03/08 04:35:05;;;;;;;7.00;4.75;;;;;;;-3.28;67.47;99172.91;4848106;29;20071;-79
2022/03/08 04:37:29;;;;;;;6.50;4.05;;;;;;;-3.27;67.92;99165.97;4864759;29;20423;-79
2022/03/08 04:39:54;;;;;;;7.45;4.45;;;;;;;-3.30;67.91;99178.16;4847938;29;20423;-77
2022/03/08 04:42:19;;;;;;;10.70;4.70;;;;;;;-3.31;67.69;99173.84;4847047;29;20044;-77
2022/03/08 04:44:44;;;;;;;8.55;4.78;;;;;;;-3.29;67.92;99176.41;4864607;29;20048;-77
2022/03/08 04:47:08;;;;;;;8.00;4.38;;;;;;;-3.29;67.95;99184.22;4864038;29;20452;-76
2022/03/08 04:49:33;;;;;;;7.40;4.82;;;;;;;-3.29;67.86;99186.84;4862366;29;20044;-76
2022/03/08 04:51:58;;;;;;;6.20;4.50;;;;;;;-3.32;68.35;99187.75;4863838;29;20508;-77
2022/03/08 04:54:23;;;;;;;7.82;4.35;;;;;;;-3.30;68.51;99190.34;4862399;29;20048;-77
2022/03/08 04:56:48;;;;;;;7.70;4.97;;;;;;;-3.30;67.66;99190.34;4862373;29;20105;-76
2022/03/08 04:59:13;;;;;;;8.30;4.90;;;;;;;-3.28;68.10;99195.50;4862616;29;20125;-77
2022/03/08 05:01:38;;;;;;;9.90;5.20;;;;;;;-3.25;67.64;99204.09;4847143;29;20048;-76
2022/03/08 05:04:03;;;;;;;6.50;4.53;;;;;;;-3.22;68.01;99208.41;4863576;29;20538;-77
2022/03/08 05:06:30;;;;;;;6.03;4.47;;;;;;;-3.18;68.04;99212.66;4862403;29;20571;-78
2022/03/08 05:08:56;;;;;;;7.20;4.82;;;;;;;-3.15;67.27;99212.56;4862778;29;20044;-77
2022/03/08 05:11:20;;;;;;;7.57;4.75;;;;;;;-3.12;68.43;99220.31;4863784;29;20272;-78
2022/03/08 05:13:45;;;;;;;8.25;4.95;;;;;;;-3.05;67.66;99227.94;4862595;29;20143;-78
2022/03/08 05:16:10;;;;;;;6.30;4.38;;;;;;;-3.01;67.26;99213.09;4862532;29;20417;-78
2022/03/08 05:18:34;;;;;;;6.65;4.28;;;;;;;-2.99;67.69;99212.19;4862911;29;20048;-78
2022/03/08 05:20:59;;;;;;;8.68;4.93;;;;;;;-2.96;67.47;99222.53;4863837;29;20103;-78
2022/03/08 05:23:24;;;;;;;11.57;4.97;;;;;;;-2.96;67.42;99230.38;4863523;29;20533;-77
2022/03/08 05:25:49;;;;;;;7.28;4.75;;;;;;;-2.97;67.60;99233.00;4862308;29;20124;-78
2022/03/08 05:28:13;;;;;;;8.48;5.07;;;;;;;-2.95;67.60;99239.91;4831729;29;20048;-78
2022/03/08 05:30:38;;;;;;;8.98;4.80;;;;;;;-2.91;67.47;99235.47;4863635;29;20537;-79
2022/03/08 05:33:03;;;;;;;6.50;4.82;;;;;;;-2.88;67.52;99230.19;4862420;29;20040;-79
2022/03/08 05:35:28;;;;;;;6.05;4.20;;;;;;;-2.84;67.13;99236.19;4836900;29;20056;-79
2022/03/08 05:37:53;;;;;;;6.43;4.20;;;;;;;-2.80;67.23;99254.31;4871936;29;20029;-78
2022/03/08 05:40:18;;;;;;;7.53;4.50;;;;;;;-2.80;67.04;99241.28;4887043;29;20037;-78
2022/03/08 05:42:43;;;;;;;8.65;5.00;;;;;;;-2.79;66.95;99240.38;4887517;29;20598;-78
2022/03/08 05:45:10;;;;;;;8.48;4.93;;;;;;;-2.82;66.51;99245.66;4876137;29;20052;-79
2022/03/08 05:47:36;;;;;;;7.55;5.13;;;;;;;-2.88;66.72;99248.44;4875929;29;20126;-77
2022/03/08 05:50:00;;;;;;;10.48;5.28;;;;;;;-2.89;67.33;99259.75;4877221;29;20099;-78
2022/03/08 05:52:25;;;;;;;6.70;4.57;;;;;;;-2.91;66.81;99256.31;4874228;29;20550;-75
2022/03/08 05:54:50;;;;;;;5.57;4.18;;;;;;;-2.90;67.03;99259.78;4868015;29;20075;-75
2022/03/08 05:57:15;;;;;;;7.10;4.72;;;;;;;-2.88;67.39;99265.84;4868171;29;20116;-73
2022/03/08 05:59:39;;;;;;;8.70;4.90;;;;;;;-2.82;66.95;99261.31;4867452;29;20047;-74
2022/03/08 06:02:04;;;;;;;7.60;4.95;;;;;;;-2.84;66.90;99268.34;4868800;29;20379;-74
2022/03/08 06:04:29;;;;;;;6.78;4.45;;;;;;;-2.86;66.81;99280.56;4870272;29;20044;-71
2022/03/08 06:06:54;;;;;;;11.60;5.75;;;;;;;-2.85;66.83;99271.00;4884370;29;20125;-73
2022/03/08 06:09:19;;;;;;;7.68;4.78;;;;;;;-2.85;66.66;99274.44;4869344;29;20046;-74
2022/03/08 06:11:43;;;;;;;8.93;4.90;;;;;;;-2.84;67.03;99276.16;4854977;29;20056;-75
2022/03/08 06:14:08;;;;;;;7.97;4.93;;;;;;;-2.85;66.34;99282.28;4869809;29;20052;-75
2022/03/08 06:16:33;;;;;;;9.48;4.70;;;;;;;-2.87;66.33;99283.19;4869136;29;20123;-73
2022/03/08 06:18:58;;;;;;;6.65;3.83;;;;;;;-2.86;66.78;99282.31;4868810;29;20048;-73
2022/03/08 06:21:23;;;;;;;7.70;4.53;;;;;;;-2.90;66.85;99293.69;4868298;29;20104;-75
2022/03/08 06:23:48;;;;;;;9.13;4.80;;;;;;;-2.89;66.45;99292.81;4863531;29;20504;-76
2022/03/08 06:26:13;;;;;;;10.75;4.90;;;;;;;-2.84;66.55;99291.81;4865465;29;20044;-75
2022/03/08 06:28:37;;;;;;;6.78;3.90;;;;;;;-2.83;66.58;99285.72;4865041;29;20040;-73
2022/03/08 06:31:02;;;;;;;14.68;8.65;;;;;;;-2.82;66.21;99305.66;4863359;29;20069;-74
2022/03/08 06:33:27;;;;;;;8.52;5.40;;;;;;;-2.77;66.23;99302.97;4861698;29;20063;-73
2022/03/08 06:35:52;;;;;;;8.20;4.85;;;;;;;-2.74;66.18;99306.38;4870623;29;20053;-73
2022/03/08 06:38:16;;;;;;;6.60;4.22;;;;;;;-2.68;65.94;99311.41;4867333;29;20044;-72
2022/03/08 06:40:41;;;;;;;6.70;4.22;;;;;;;-2.64;65.87;99322.66;4864697;29;20071;-71
2022/03/08 06:43:07;;;;;;;5.45;3.58;;;;;;;-2.59;65.97;99315.56;4863363;29;20057;-73
2022/03/08 06:45:32;;;;;;;7.63;4.88;;;;;;;-2.59;65.15;99316.41;4862144;29;20048;-72
2022/03/08 06:47:57;;;;;;;6.32;3.88;;;;;;;-2.54;65.51;99325.91;4862612;29;20063;-73
2022/03/08 06:50:21;;;;;;;4.93;3.70;;;;;;;-2.62;64.95;99326.94;4862159;29;20082;-73
2022/03/08 06:52:46;;;;;;;6.10;3.67;;;;;;;-2.67;65.86;99328.78;4861019;29;20496;-73
2022/03/08 06:55:13;;;;;;;6.47;3.88;;;;;;;-2.66;64.90;99334.88;4861494;29;20088;-72
2022/03/08 06:57:38;;;;;;;5.82;3.95;;;;;;;-2.64;65.25;99328.72;4860607;29;20518;-73
2022/03/08 07:00:07;;;;;;;6.47;3.85;;;;;;;-2.62;65.39;99337.38;4892283;29;20566;-73
2022/03/08 07:02:32;;;;;;;8.05;4.20;;;;;;;-2.62;65.41;99326.94;4860676;29;20056;-72
2022/03/08 07:04:56;;;;;;;6.57;4.70;;;;;;;-2.60;65.11;99338.22;4862138;29;20047;-73
2022/03/08 07:07:21;;;;;;;10.10;5.35;;;;;;;-2.63;65.13;99340.03;4860537;29;20518;-73
2022/03/08 07:09:47;;;;;;;8.15;4.88;;;;;;;-2.62;65.28;99337.38;4861589;29;20048;-73
2022/03/08 07:12:12;;;;;;;7.85;4.70;;;;;;;-2.62;65.49;99336.53;4876174;29;20058;-72
2022/03/08 07:14:36;;;;;;;7.25;4.55;;;;;;;-2.63;65.20;99346.09;4860349;29;20048;-72
2022/03/08 07:17:01;;;;;;;9.63;5.15;;;;;;;-2.62;64.94;99346.97;4860591;29;20515;-73
2022/03/08 07:19:26;;;;;;;6.88;4.40;;;;;;;-2.65;65.29;99347.88;4891926;29;20079;-72
2022/03/08 07:21:51;;;;;;;7.20;4.72;;;;;;;-2.67;65.37;99347.06;4861935;29;20044;-73
2022/03/08 07:24:17;;;;;;;9.25;4.22;;;;;;;-2.68;65.09;99358.38;4844559;29;20104;-73
2022/03/08 07:26:42;;;;;;;5.93;3.75;;;;;;;-2.70;64.93;99354.94;4859883;29;20052;-73
2022/03/08 07:29:06;;;;;;;7.63;4.40;;;;;;;-2.72;65.09;99356.75;4859602;29;20420;-75
2022/03/08 07:31:31;;;;;;;7.25;4.20;;;;;;;-2.72;65.66;99351.53;4860853;29;20131;-71
2022/03/08 07:33:57;;;;;;;6.50;4.25;;;;;;;-2.69;65.14;99359.28;4844296;29;20103;-74
2022/03/08 07:36:22;;;;;;;7.07;4.93;;;;;;;-2.64;64.78;99367.00;4859855;29;20052;-72
2022/03/08 07:38:48;;;;;;;7.15;4.50;;;;;;;-2.60;64.94;99364.31;4860295;29;20621;-74
2022/03/08 07:41:13;;;;;;;6.60;4.47;;;;;;;-2.62;64.90;99365.22;4862597;29;20079;-73
2022/03/08 07:43:38;;;;;;;6.68;4.78;;;;;;;-2.63;64.65;99369.59;4863458;29;20067;-75
2022/03/08 07:46:06;;;;;;;6.68;4.25;;;;;;;-2.63;64.67;99366.13;4864130;29;20045;-73
2022/03/08 07:48:31;;;;;;;7.97;4.97;;;;;;;-2.60;64.81;99377.34;4863611;29;20079;-74
2022/03/08 07:50:55;;;;;;;10.10;5.35;;;;;;;-2.54;64.50;99378.09;4891852;29;20076;-72
2022/03/08 07:53:20;;;;;;;8.50;4.85;;;;;;;-2.47;64.42;99390.09;4844442;29;20100;-72
2022/03/08 07:55:46;;;;;;;12.20;5.13;;;;;;;-2.40;64.65;99389.09;4859865;29;20059;-73
2022/03/08 07:58:13;;;;;;;9.32;5.53;;;;;;;-2.41;63.36;99385.63;4859685;29;20108;-75
2022/03/08 08:00:38;;;;;;;7.93;4.60;;;;;;;-2.43;64.08;99390.00;4859798;29;20052;-74
2022/03/08 08:03:03;;;;;;;7.90;4.90;;;;;;;-2.38;63.93;99395.13;4859822;29;20055;-73
2022/03/08 08:05:28;;;;;;;9.80;4.45;;;;;;;-2.30;64.21;99401.03;4859858;29;20044;-72
2022/03/08 08:07:53;;;;;;;7.88;4.57;;;;;;;-2.24;63.57;99396.50;4863303;29;20051;-71
2022/03/08 08:10:17;;;;;;;9.65;4.18;;;;;;;-2.22;63.47;99409.53;4864323;29;20051;-74
2022/03/08 08:12:42;;;;;;;7.28;4.95;;;;;;;-2.20;63.24;99398.16;4864471;29;20056;-72
2022/03/08 08:15:08;;;;;;;7.68;4.28;;;;;;;-2.15;63.64;99400.66;4847501;29;20131;-72
2022/03/08 08:17:34;;;;;;;6.40;4.00;;;;;;;-2.15;63.13;99399.81;4847498;29;20412;-75
2022/03/08 08:19:59;;;;;;;7.72;4.50;;;;;;;-2.16;62.53;99404.16;4864515;29;20052;-74
2022/03/08 08:22:24;;;;;;;6.05;3.97;;;;;;;-2.15;62.87;99416.34;4863162;29;20496;-74
2022/03/08 08:24:49;;;;;;;7.43;4.53;;;;;;;-2.10;62.84;99416.22;4847000;29;20488;-73
2022/03/08 08:27:14;;;;;;;5.63;4.13;;;;;;;-2.07;62.93;99409.16;4880902;29;20050;-74
2022/03/08 08:29:39;;;;;;;5.57;3.63;;;;;;;-2.05;62.63;99407.38;4880897;29;20056;-74
2022/03/08 08:32:04;;;;;;;5.85;3.65;;;;;;;-1.99;62.29;99414.19;4881364;29;20044;-72
2022/03/08 08:34:29;;;;;;;8.27;4.22;;;;;;;-1.96;62.68;99422.81;4877565;29;20036;-73
2022/03/08 08:36:54;;;;;;;7.13;4.45;;;;;;;-1.89;62.57;99424.38;4862531;29;20132;-72
2022/03/08 08:39:19;;;;;;;10.60;5.75;;;;;;;-1.81;62.15;99426.81;4867848;29;20127;-73
2022/03/08 08:41:44;;;;;;;6.13;4.35;;;;;;;-1.71;61.87;99424.81;4877473;29;20381;-74
2022/03/08 08:44:11;;;;;;;10.32;4.45;;;;;;;-1.62;61.75;99422.84;4862228;29;20147;-72
2022/03/08 08:46:36;;;;;;;6.95;4.10;;;;;;;-1.52;61.82;99426.06;4894092;29;20124;-72
2022/03/08 08:49:01;;;;;;;19.05;10.40;;;;;;;-1.44;61.29;99425.84;4870018;29;20150;-73
2022/03/08 08:51:26;;;;;;;10.65;6.20;;;;;;;-1.40;61.00;99433.59;4880454;29;20047;-73
2022/03/08 08:53:51;;;;;;;9.40;5.13;;;;;;;-1.36;60.99;99434.38;4881154;29;20411;-73
2022/03/08 08:56:16;;;;;;;8.88;4.40;;;;;;;-1.37;60.97;99428.28;4865706;29;20392;-72
2022/03/08 08:58:41;;;;;;;8.00;4.93;;;;;;;-1.37;61.01;99436.13;4884240;29;20051;-73
2022/03/08 09:01:06;;;;;;;7.25;4.38;;;;;;;-1.43;60.81;99438.88;4859341;29;20096;-73
2022/03/08 09:03:32;;;;;;;12.88;5.35;;;;;;;-1.44;60.27;99442.41;4871619;29;20036;-74
2022/03/08 09:05:58;;;;;;;6.88;4.53;;;;;;;-1.41;60.80;99451.91;4881941;29;20032;-73
2022/03/08 09:08:24;;;;;;;7.43;4.53;;;;;;;-1.41;60.87;99444.94;4882231;29;20039;-73
2022/03/08 09:10:48;;;;;;;9.52;4.30;;;;;;;-1.42;60.68;99451.06;4882264;29;20051;-73
2022/03/08 09:13:13;;;;;;;8.43;4.32;;;;;;;-1.43;60.81;99449.34;4880428;29;20571;-73
2022/03/08 09:15:38;;;;;;;9.05;5.40;;;;;;;-1.44;60.24;99452.84;4883778;29;20373;-74
2022/03/08 09:18:05;;;;;;;7.70;4.90;;;;;;;-1.42;60.58;99471.13;4891867;29;20048;-73
2022/03/08 09:20:30;;;;;;;7.53;4.18;;;;;;;-1.43;60.63;99462.41;4876157;29;20395;-73
2022/03/08 09:22:55;;;;;;;8.73;5.30;;;;;;;-1.46;60.23;99458.13;4923411;29;20446;-73
2022/03/08 09:25:21;;;;;;;7.53;5.00;;;;;;;-1.42;60.27;99465.88;4897048;29;20262;-73
2022/03/08 09:27:46;;;;;;;6.63;4.53;;;;;;;-1.40;60.40;99464.97;4881884;29;20131;-72
2022/03/08 09:30:12;;;;;;;6.95;4.90;;;;;;;-1.39;60.18;99466.69;4880440;29;20078;-74
2022/03/08 09:32:37;;;;;;;9.00;5.57;;;;;;;-1.40;59.99;99475.41;4881831;29;20043;-74
2022/03/08 09:35:02;;;;;;;7.97;4.97;;;;;;;-1.41;60.11;99472.84;4880617;29;20050;-71
2022/03/08 09:37:28;;;;;;;9.52;5.18;;;;;;;-1.45;60.10;99482.50;4880270;29;20491;-75
2022/03/08 09:39:53;;;;;;;13.18;6.63;;;;;;;-1.44;59.69;99467.69;4896693;29;20370;-74
2022/03/08 09:42:19;;;;;;;8.93;5.40;;;;;;;-1.43;59.49;99477.25;4848875;29;20052;-75
2022/03/08 09:44:46;;;;;;;6.15;4.05;;;;;;;-1.40;59.49;99474.56;4864797;29;20044;-75
2022/03/08 09:47:10;;;;;;;6.28;4.72;;;;;;;-1.38;59.05;99481.47;4881302;29;20066;-73
2022/03/08 09:49:35;;;;;;;8.15;3.95;;;;;;;-1.40;58.95;99501.56;4883509;29;20039;-74
2022/03/08 09:52:00;;;;;;;8.95;4.85;;;;;;;-1.36;59.02;99490.13;4889568;29;20048;-72
2022/03/08 09:54:25;;;;;;;7.93;4.97;;;;;;;-1.33;58.72;99492.66;4850816;29;20055;-73
2022/03/08 09:56:50;;;;;;;9.13;4.90;;;;;;;-1.27;58.76;99484.66;4884320;29;20047;-72
2022/03/08 09:59:17;;;;;;;6.30;4.15;;;;;;;-1.22;58.80;99488.00;4865443;29;20044;-73
2022/03/08 10:01:42;;;;;;;7.78;4.82;;;;;;;-1.15;58.27;99492.19;4897491;29;20059;-73
2022/03/08 10:04:07;;;;;;;6.80;4.15;;;;;;;-1.07;58.31;99496.34;4897580;29;20047;-74
2022/03/08 10:06:40;;;;;;;6.93;4.40;;;;;;;-0.99;58.72;99499.59;4913604;29;20056;-75
2022/03/08 10:09:16;;;;;;;10.33;4.83;;;;;;;-0.97;58.19;99500.44;4882285;29;20045;-73
2022/03/08 10:11:41;;;;;;;12.68;6.18;;;;;;;-1.01;57.54;99489.19;4882280;29;20159;-75
2022/03/08 10:14:11;;;;;;;9.65;5.68;;;;;;;-1.02;57.44;99491.88;4866079;29;20134;-73
2022/03/08 10:16:43;;;;;;;9.00;4.47;;;;;;;-1.04;57.62;99501.50;4897613;29;20469;-73
2022/03/08 10:19:10;;;;;;;8.35;4.82;;;;;;;-1.01;57.63;99497.03;4897650;29;20043;-71
2022/03/08 10:21:41;;;;;;;8.40;5.13;;;;;;;-1.03;57.16;99509.31;4865737;29;20047;-72
2022/03/08 10:24:23;;;;;;;6.78;4.18;;;;;;;-0.97;58.03;99497.81;4865801;29;20519;-71
2022/03/08 10:26:57;;;;;;;7.20;4.10;;;;;;;-0.89;57.22;99511.53;4865701;29;20058;-72
2022/03/08 10:29:32;;;;;;;7.82;4.82;;;;;;;-0.81;56.76;99506.97;4896458;29;20534;-70
2022/03/08 10:32:03;;;;;;;7.83;4.60;;;;;;;-0.75;57.28;99512.03;4894485;29;20052;-68
2022/03/08 10:34:29;;;;;;;5.88;3.78;;;;;;;-0.72;57.07;99506.72;4879571;29;20042;-71
2022/03/08 10:37:19;;;;;;;14.93;5.70;;;;;;;-0.72;57.14;99504.09;4863792;29;20044;-73
2022/03/08 10:39:47;;;;;;;6.75;4.75;;;;;;;-0.82;56.90;99510.50;4880040;29;20040;-73
2022/03/08 10:42:18;;;;;;;7.68;4.43;;;;;;;-0.83;56.58;99516.63;4879838;29;20144;-79
2022/03/08 10:44:43;;;;;;;9.48;4.80;;;;;;;-0.78;57.36;99517.34;4864749;29;20040;-74
2022/03/08 10:47:10;;;;;;;8.25;4.97;;;;;;;-0.66;56.47;99522.22;4879419;29;20055;-72
2022/03/08 10:49:48;;;;;;;7.05;4.20;;;;;;;-0.56;56.27;99522.81;4880680;29;20175;-72
2022/03/08 10:52:13;;;;;;;6.43;4.30;;;;;;;-0.59;56.33;99529.03;4879493;29;20059;-72
2022/03/08 10:54:38;;;;;;;8.05;4.13;;;;;;;-0.63;56.36;99527.38;4879452;29;20044;-73
2022/03/08 10:57:03;;;;;;;9.88;4.50;;;;;;;-0.75;55.59;99522.50;4880326;29;20107;-75
2022/03/08 10:59:28;;;;;;;5.80;4.63;;;;;;;-0.92;55.72;99522.97;4863973;29;20047;-76
2022/03/08 11:01:53;;;;;;;11.43;4.75;;;;;;;-1.03;56.24;99518.91;4849259;29;20412;-74
2022/03/08 11:04:21;;;;;;;10.48;4.50;;;;;;;-1.10;56.63;99526.06;4881151;29;20333;-76
2022/03/08 11:06:50;;;;;;;7.82;4.65;;;;;;;-1.24;56.25;99525.56;4880415;29;20043;-75
2022/03/08 11:09:15;;;;;;;8.30;4.35;;;;;;;-1.34;56.87;99526.69;4880794;29;20047;-75
2022/03/08 11:11:40;;;;;;;9.88;4.85;;;;;;;-1.34;57.08;99527.53;4879543;29;20135;-68
2022/03/08 11:14:05;;;;;;;6.57;4.28;;;;;;;-1.29;57.02;99524.81;4847873;29;20043;-67
2022/03/08 11:16:32;;;;;;;7.68;5.03;;;;;;;-1.23;56.98;99519.41;4863744;29;20052;-69
2022/03/08 11:18:57;;;;;;;9.27;5.47;;;;;;;-1.21;56.94;99515.88;4862001;29;20036;-70
2022/03/08 11:21:23;;;;;;;6.80;4.75;;;;;;;-1.21;56.81;99528.94;4881052;29;20443;-76
2022/03/08 11:23:48;;;;;;;7.03;4.00;;;;;;;-1.18;56.70;99521.03;4879634;29;20162;-74